Time;durP1;ratioP1;P1;durP2;ratioP2;P2;SDS_P1;SDS_P2;PMS_P1;PMS_P2;Temp;Humidity;BMP_temperature;BMP_pressure;BME280_temperature;BME280_humidity;BME280_pressure;Samples;Min_cycle;Max_cycle;Signal;HPM_P1;HPM_P2
2023/07/08 00:01:35;;;;;;;6.60;4.22;;;;;;;18.97;61.66;101545.75;4990378;28;20509;-72
2023/07/08 00:04:03;;;;;;;10.52;4.10;;;;;;;18.95;62.09;101534.00;4990286;28;20537;-72
2023/07/08 00:06:28;;;;;;;11.63;4.15;;;;;;;18.92;61.29;101534.28;4990266;28;20034;-72
2023/07/08 00:08:55;;;;;;;5.13;3.63;;;;;;;18.90;61.79;101528.06;4989842;28;20042;-72
2023/07/08 00:11:21;;;;;;;6.38;4.00;;;;;;;18.87;62.16;101531.13;4990104;28;20177;-69
2023/07/08 00:13:46;;;;;;;10.90;4.18;;;;;;;18.82;62.55;101531.56;4990562;28;20512;-72
2023/07/08 00:16:14;;;;;;;5.78;4.68;;;;;;;18.79;62.46;101520.84;5004749;28;20094;-72
2023/07/08 00:18:40;;;;;;;6.72;3.70;;;;;;;18.77;62.87;101524.75;4990014;28;20355;-73
2023/07/08 00:21:16;;;;;;;8.00;4.28;;;;;;;18.73;63.06;101526.94;4989810;28;20026;-72
2023/07/08 00:23:50;;;;;;;5.82;3.88;;;;;;;18.70;62.63;101520.84;4989439;28;20034;-72
2023/07/08 00:26:23;;;;;;;7.53;3.42;;;;;;;18.64;63.77;101519.50;4989324;28;20100;-72
2023/07/08 00:28:49;;;;;;;5.10;3.60;;;;;;;18.60;63.57;101520.81;4990311;28;20470;-72
2023/07/08 00:31:15;;;;;;;4.60;3.47;;;;;;;18.55;63.29;101523.16;5004331;28;20069;-71
2023/07/08 00:33:40;;;;;;;6.45;4.07;;;;;;;18.49;64.30;101509.97;5011989;28;20084;-72
2023/07/08 00:36:16;;;;;;;6.43;4.07;;;;;;;18.45;63.36;101516.78;4989408;28;20433;-72
2023/07/08 00:38:44;;;;;;;7.30;3.85;;;;;;;18.40;64.86;101506.19;4989010;28;20482;-72
2023/07/08 00:41:28;;;;;;;8.27;4.22;;;;;;;18.39;63.34;101509.09;5003881;28;20153;-72
2023/07/08 00:43:59;;;;;;;6.68;3.58;;;;;;;18.31;65.88;101515.31;5004333;28;20038;-72
2023/07/08 00:46:27;;;;;;;9.27;4.55;;;;;;;18.23;66.84;101507.81;5004262;28;20514;-72
2023/07/08 00:48:58;;;;;;;6.55;4.47;;;;;;;18.12;67.67;101502.41;4988016;28;20205;-72
2023/07/08 00:51:23;;;;;;;6.97;4.60;;;;;;;18.01;68.27;101497.06;4987802;28;20042;-71
2023/07/08 00:53:49;;;;;;;5.18;4.03;;;;;;;18.02;67.61;101505.16;4988336;28;20030;-71
2023/07/08 00:56:20;;;;;;;6.50;4.20;;;;;;;17.99;67.05;101491.69;4988744;28;20046;-72
2023/07/08 00:59:00;;;;;;;7.28;4.85;;;;;;;17.92;68.08;101489.66;5004613;28;20038;-72
2023/07/08 01:01:28;;;;;;;6.25;4.05;;;;;;;17.84;68.46;101491.22;4989619;28;20053;-72
2023/07/08 01:04:16;;;;;;;6.32;3.92;;;;;;;17.83;67.50;101494.13;5004275;28;20050;-72
2023/07/08 01:06:47;;;;;;;6.05;4.20;;;;;;;17.79;67.97;101487.19;4988216;28;20049;-71
2023/07/08 01:09:15;;;;;;;7.30;4.20;;;;;;;17.80;67.54;101500.78;4989128;28;20497;-72
2023/07/08 01:11:41;;;;;;;5.70;4.03;;;;;;;17.78;67.35;101489.06;4989121;28;20029;-72
2023/07/08 01:14:12;;;;;;;6.60;4.65;;;;;;;17.75;68.06;101493.97;4989104;28;20038;-72
2023/07/08 01:16:38;;;;;;;7.05;4.32;;;;;;;17.73;67.98;101498.72;4989228;28;20034;-72
2023/07/08 01:19:06;;;;;;;9.07;4.68;;;;;;;17.69;67.19;101483.50;4987326;28;20446;-70
2023/07/08 01:21:33;;;;;;;6.25;3.97;;;;;;;17.67;68.28;101496.53;4988410;28;20042;-71
2023/07/08 01:24:03;;;;;;;10.57;4.28;;;;;;;17.63;67.67;101501.47;5001582;28;20022;-71
2023/07/08 01:26:31;;;;;;;7.30;4.07;;;;;;;17.63;67.76;101492.34;4988711;28;20121;-71
2023/07/08 01:28:58;;;;;;;7.63;4.72;;;;;;;17.62;68.79;101496.94;5003263;28;20053;-71
2023/07/08 01:31:24;;;;;;;7.32;4.15;;;;;;;17.60;68.23;101501.72;4988408;28;20058;-72
2023/07/08 01:33:51;;;;;;;9.00;4.82;;;;;;;17.56;68.80;101492.88;4988732;28;20248;-71
2023/07/08 01:36:17;;;;;;;6.18;4.18;;;;;;;17.53;68.30;101493.19;5003521;28;20395;-72
2023/07/08 01:38:43;;;;;;;7.63;4.28;;;;;;;17.50;69.11;101493.44;4986628;28;20081;-72
2023/07/08 01:41:12;;;;;;;6.97;4.85;;;;;;;17.49;68.51;101490.84;4985793;28;20041;-72
2023/07/08 01:43:38;;;;;;;7.28;4.50;;;;;;;17.46;68.56;101486.47;4988677;28;20052;-71
2023/07/08 01:46:11;;;;;;;5.50;4.15;;;;;;;17.43;69.29;101486.75;4988107;28;20046;-72
2023/07/08 01:48:40;;;;;;;8.05;4.25;;;;;;;17.40;68.47;101494.44;4987310;28;20041;-72
2023/07/08 01:51:06;;;;;;;6.57;4.10;;;;;;;17.40;69.05;101489.81;4987779;28;20086;-71
2023/07/08 01:53:38;;;;;;;7.45;4.10;;;;;;;17.37;68.02;101480.94;4986235;28;20479;-72
2023/07/08 01:56:04;;;;;;;6.90;4.53;;;;;;;17.31;68.67;101486.00;4985555;28;20450;-72
2023/07/08 01:58:30;;;;;;;6.82;4.40;;;;;;;17.23;69.15;101477.56;5003029;28;20379;-71
2023/07/08 02:00:56;;;;;;;7.20;4.32;;;;;;;17.19;70.54;101475.25;5002647;28;20042;-72
2023/07/08 02:03:23;;;;;;;6.07;4.30;;;;;;;17.17;68.53;101471.78;5002882;28;20035;-72
2023/07/08 02:05:48;;;;;;;5.45;3.88;;;;;;;17.20;68.75;101468.72;5003167;28;20520;-72
2023/07/08 02:08:14;;;;;;;4.65;3.35;;;;;;;17.21;69.00;101468.59;4987340;28;20048;-72
2023/07/08 02:10:41;;;;;;;4.95;3.72;;;;;;;17.14;69.34;101463.78;4985609;28;20121;-71
2023/07/08 02:13:07;;;;;;;7.28;3.90;;;;;;;17.14;69.59;101470.16;4986048;28;20030;-71
2023/07/08 02:15:32;;;;;;;6.95;4.15;;;;;;;17.11;69.01;101464.91;4988072;28;20104;-71
2023/07/08 02:17:58;;;;;;;5.38;3.80;;;;;;;17.11;68.84;101464.06;4987510;28;20412;-72
2023/07/08 02:20:24;;;;;;;10.15;4.13;;;;;;;17.09;69.50;101456.81;4987394;28;20049;-72
2023/07/08 02:22:51;;;;;;;5.32;4.10;;;;;;;17.07;68.94;101452.50;5001995;28;20029;-71
2023/07/08 02:25:16;;;;;;;7.55;4.50;;;;;;;17.06;69.25;101448.84;4986023;28;20030;-71
2023/07/08 02:27:42;;;;;;;6.30;3.50;;;;;;;17.01;69.68;101448.38;5002366;28;20038;-71
2023/07/08 02:30:09;;;;;;;7.43;4.13;;;;;;;16.98;69.02;101445.94;4987412;28;20041;-72
2023/07/08 02:32:38;;;;;;;5.78;3.60;;;;;;;16.97;69.01;101435.94;4986139;28;20090;-72
2023/07/08 02:35:07;;;;;;;7.35;3.58;;;;;;;16.96;70.49;101442.44;5006774;28;20091;-73
2023/07/08 02:37:32;;;;;;;6.78;4.00;;;;;;;16.90;70.36;101443.00;5006383;28;20046;-71
2023/07/08 02:39:58;;;;;;;5.82;4.15;;;;;;;16.87;70.79;101431.41;4989166;28;20370;-71
2023/07/08 02:42:23;;;;;;;6.45;4.30;;;;;;;16.81;71.62;101430.94;5002288;28;20070;-71
2023/07/08 02:44:49;;;;;;;7.28;4.03;;;;;;;16.76;73.62;101429.63;5002732;28;20080;-71
2023/07/08 02:47:14;;;;;;;5.60;3.55;;;;;;;16.73;71.63;101430.75;4987306;28;20517;-71
2023/07/08 02:49:39;;;;;;;7.75;4.30;;;;;;;16.71;72.52;101435.50;5018966;28;20791;-72
2023/07/08 02:52:05;;;;;;;6.43;4.18;;;;;;;16.68;72.62;101433.00;5001650;28;20074;-71
2023/07/08 02:54:30;;;;;;;5.85;4.07;;;;;;;16.65;72.12;101441.53;4987103;28;20049;-71
2023/07/08 02:56:55;;;;;;;11.43;5.30;;;;;;;16.57;72.37;101433.09;5001636;28;20121;-72
2023/07/08 02:59:21;;;;;;;8.80;4.63;;;;;;;16.57;71.53;101444.09;4986444;28;20065;-71
2023/07/08 03:01:46;;;;;;;7.03;4.75;;;;;;;16.57;72.89;101450.44;5006828;28;20034;-71
2023/07/08 03:04:13;;;;;;;7.30;4.30;;;;;;;16.57;71.12;101441.34;4991305;28;20089;-72
2023/07/08 03:06:43;;;;;;;7.38;4.57;;;;;;;16.56;71.63;101448.72;4990532;28;20367;-72
2023/07/08 03:09:11;;;;;;;6.80;4.15;;;;;;;16.56;71.71;101448.72;4990788;28;20031;-71
2023/07/08 03:11:37;;;;;;;7.25;4.07;;;;;;;16.53;72.72;101457.22;5004156;28;20038;-71
2023/07/08 03:14:03;;;;;;;5.72;4.07;;;;;;;16.47;74.79;101459.66;4991019;28;20038;-72
2023/07/08 03:16:28;;;;;;;8.20;4.57;;;;;;;16.41;75.31;101457.41;4989723;28;20438;-71
2023/07/08 03:18:54;;;;;;;7.80;4.18;;;;;;;16.36;76.21;101445.97;5006322;28;20030;-72
2023/07/08 03:21:20;;;;;;;8.65;4.90;;;;;;;16.32;75.20;101443.50;5006052;28;20056;-71
2023/07/08 03:23:47;;;;;;;9.10;4.03;;;;;;;16.31;73.53;101449.09;5005634;28;20037;-71
2023/07/08 03:26:16;;;;;;;8.52;4.22;;;;;;;16.33;72.73;101445.25;5004786;28;20070;-71
2023/07/08 03:28:44;;;;;;;7.25;4.20;;;;;;;16.37;72.54;101451.34;4989300;28;20037;-71
2023/07/08 03:31:10;;;;;;;6.30;4.22;;;;;;;16.37;72.00;101443.09;4988367;28;20030;-72
2023/07/08 03:33:37;;;;;;;7.88;4.45;;;;;;;16.36;72.84;101449.56;4989313;28;20034;-72
2023/07/08 03:36:04;;;;;;;12.90;4.72;;;;;;;16.34;72.95;101451.59;5005283;28;20124;-71
2023/07/08 03:38:29;;;;;;;8.45;4.05;;;;;;;16.31;72.80;101446.34;4988808;28;20522;-71
2023/07/08 03:40:55;;;;;;;6.55;4.30;;;;;;;16.29;73.66;101453.88;4990025;28;20066;-71
2023/07/08 03:43:20;;;;;;;8.35;4.65;;;;;;;16.27;73.18;101456.75;5006256;28;20057;-72
2023/07/08 03:45:47;;;;;;;5.65;3.88;;;;;;;16.30;72.37;101463.84;4991219;28;20042;-71
2023/07/08 03:48:14;;;;;;;7.07;4.38;;;;;;;16.32;72.67;101459.09;5011504;28;20026;-71
2023/07/08 03:50:41;;;;;;;7.50;4.60;;;;;;;16.29;72.97;101456.63;4997151;28;20026;-72
2023/07/08 03:53:08;;;;;;;8.30;4.05;;;;;;;16.27;72.91;101459.50;5004760;28;20088;-71
2023/07/08 03:55:34;;;;;;;8.25;4.22;;;;;;;16.28;72.44;101463.13;5004578;28;20060;-71
2023/07/08 03:58:00;;;;;;;6.15;4.20;;;;;;;16.32;72.82;101467.34;4990061;28;20042;-72
2023/07/08 04:00:28;;;;;;;7.35;4.55;;;;;;;16.32;73.39;101476.44;4988789;28;20034;-71
2023/07/08 04:02:57;;;;;;;7.40;4.43;;;;;;;16.30;73.21;101472.94;4988908;28;20030;-70
2023/07/08 04:05:23;;;;;;;6.45;4.20;;;;;;;16.29;74.20;101479.47;4990272;28;20034;-71
2023/07/08 04:07:48;;;;;;;6.68;4.50;;;;;;;16.29;73.52;101473.09;5005245;28;20049;-71
2023/07/08 04:10:15;;;;;;;5.80;4.47;;;;;;;16.29;73.69;101471.22;4989851;28;20030;-71
2023/07/08 04:12:41;;;;;;;7.55;4.90;;;;;;;16.27;73.86;101467.75;4988976;28;20049;-71
2023/07/08 04:15:11;;;;;;;13.07;5.43;;;;;;;16.28;73.71;101469.47;4990993;28;20113;-72
2023/07/08 04:17:46;;;;;;;7.45;4.45;;;;;;;16.32;73.63;101476.44;4989925;28;20045;-71
2023/07/08 04:20:18;;;;;;;9.38;4.40;;;;;;;16.30;73.62;101470.22;4989723;28;20042;-72
2023/07/08 04:22:43;;;;;;;5.05;4.20;;;;;;;16.35;74.07;101475.31;5004647;28;20552;-71
2023/07/08 04:25:11;;;;;;;7.82;4.78;;;;;;;16.35;74.09;101478.03;4989864;28;20030;-72
2023/07/08 04:27:37;;;;;;;6.90;4.18;;;;;;;16.39;74.35;101476.78;4989607;28;20208;-71
2023/07/08 04:30:04;;;;;;;5.63;4.40;;;;;;;16.44;73.80;101480.00;4990257;28;20022;-71
2023/07/08 04:32:30;;;;;;;5.63;4.18;;;;;;;16.45;73.80;101478.97;5004487;28;20037;-68
2023/07/08 04:34:55;;;;;;;7.78;4.80;;;;;;;16.49;73.56;101474.09;5014339;28;20046;-67
2023/07/08 04:37:20;;;;;;;6.53;4.57;;;;;;;16.51;74.22;101472.97;4989791;28;20065;-66
2023/07/08 04:39:46;;;;;;;11.13;5.05;;;;;;;16.50;74.24;101464.84;5003418;28;20046;-69
2023/07/08 04:42:16;;;;;;;6.40;5.13;;;;;;;16.56;73.59;101465.19;4989620;28;20046;-68
2023/07/08 04:44:41;;;;;;;8.57;4.63;;;;;;;16.57;73.56;101455.94;4989372;28;20573;-66
2023/07/08 04:47:08;;;;;;;7.43;4.55;;;;;;;16.65;72.89;101460.78;4989411;28;20502;-67
2023/07/08 04:49:34;;;;;;;6.50;4.55;;;;;;;16.68;73.35;101463.22;5005962;28;20038;-67
2023/07/08 04:52:01;;;;;;;9.82;5.30;;;;;;;16.74;73.73;101472.84;5008263;28;20481;-66
2023/07/08 04:54:27;;;;;;;8.07;5.32;;;;;;;16.75;74.11;101469.09;4998956;28;20065;-73
2023/07/08 04:56:53;;;;;;;6.53;5.10;;;;;;;16.79;73.84;101462.34;5001270;28;20481;-71
2023/07/08 04:59:21;;;;;;;7.05;4.97;;;;;;;16.83;73.94;101464.69;5008885;28;20021;-71
2023/07/08 05:01:46;;;;;;;9.02;5.13;;;;;;;16.90;73.63;101470.47;4989634;28;20095;-71
2023/07/08 05:04:14;;;;;;;9.77;5.18;;;;;;;16.93;73.63;101464.72;4989206;28;20512;-72
2023/07/08 05:06:40;;;;;;;6.88;5.03;;;;;;;16.99;73.65;101466.91;4986755;28;20042;-71
2023/07/08 05:09:05;;;;;;;7.30;5.28;;;;;;;17.03;73.14;101460.13;4988704;28;20038;-72
2023/07/08 05:11:31;;;;;;;6.47;4.80;;;;;;;17.11;73.51;101470.41;4988633;28;20031;-71
2023/07/08 05:13:56;;;;;;;7.50;5.15;;;;;;;17.17;72.78;101469.03;4988798;28;20046;-71
2023/07/08 05:16:22;;;;;;;7.97;5.43;;;;;;;17.22;73.03;101472.22;4989779;28;20052;-71
2023/07/08 05:18:47;;;;;;;7.97;5.20;;;;;;;17.29;73.57;101468.75;4989684;28;20139;-70
2023/07/08 05:21:14;;;;;;;6.80;5.68;;;;;;;17.36;73.18;101459.97;4988496;28;20038;-71
2023/07/08 05:23:39;;;;;;;11.15;5.45;;;;;;;17.41;72.56;101466.78;5002937;28;20399;-72
2023/07/08 05:26:07;;;;;;;9.50;5.75;;;;;;;17.46;72.72;101463.59;4988131;28;20046;-72
2023/07/08 05:28:33;;;;;;;9.75;6.32;;;;;;;17.52;72.78;101463.03;5003882;28;20033;-72
2023/07/08 05:30:59;;;;;;;6.85;5.75;;;;;;;17.58;72.20;101465.25;4989363;28;20041;-71
2023/07/08 05:33:26;;;;;;;9.98;6.32;;;;;;;17.65;71.79;101466.41;4988873;28;20339;-72
2023/07/08 05:35:52;;;;;;;9.45;6.47;;;;;;;17.71;73.28;101459.44;5006843;28;20184;-69
2023/07/08 05:38:17;;;;;;;10.57;6.25;;;;;;;17.79;72.69;101465.16;5008239;28;20128;-71
2023/07/08 05:40:42;;;;;;;8.70;7.20;;;;;;;17.83;73.80;101459.22;4998873;28;20211;-72
2023/07/08 05:43:08;;;;;;;10.65;7.60;;;;;;;17.88;73.52;101453.28;4988585;28;20038;-72
2023/07/08 05:45:35;;;;;;;9.45;7.30;;;;;;;17.95;73.49;101456.31;4988293;28;20506;-71
2023/07/08 05:48:01;;;;;;;11.75;7.82;;;;;;;18.01;73.95;101442.88;5007421;28;20462;-72
2023/07/08 05:50:27;;;;;;;11.20;8.07;;;;;;;18.06;74.07;101446.03;5002160;28;20030;-72
2023/07/08 05:52:52;;;;;;;10.65;7.88;;;;;;;18.10;73.54;101458.50;4987824;28;20060;-72
2023/07/08 05:55:17;;;;;;;12.30;8.60;;;;;;;18.18;72.81;101460.53;4988609;28;20541;-71
2023/07/08 05:57:43;;;;;;;12.45;8.23;;;;;;;18.26;73.47;101454.28;4988280;28;20474;-71
2023/07/08 06:00:10;;;;;;;10.65;7.95;;;;;;;18.33;73.15;101453.56;4988589;28;20490;-71
2023/07/08 06:02:38;;;;;;;12.73;8.32;;;;;;;18.40;73.52;101459.34;4987961;28;20038;-71
2023/07/08 06:05:03;;;;;;;11.13;8.02;;;;;;;18.43;73.81;101463.72;4988320;28;20402;-71
2023/07/08 06:07:29;;;;;;;15.13;7.60;;;;;;;18.52;72.35;101460.94;4987358;28;20121;-71
2023/07/08 06:09:55;;;;;;;8.98;7.10;;;;;;;18.55;72.87;101466.13;4987670;28;20093;-71
2023/07/08 06:12:21;;;;;;;13.98;6.65;;;;;;;18.66;71.30;101461.50;4988227;28;20040;-71
2023/07/08 06:14:47;;;;;;;9.30;6.78;;;;;;;18.75;71.54;101467.03;4988470;28;20038;-72
2023/07/08 06:17:12;;;;;;;10.63;5.95;;;;;;;18.83;70.23;101469.88;5002635;28;20047;-72
2023/07/08 06:19:37;;;;;;;13.00;6.80;;;;;;;18.93;70.15;101467.13;4988092;28;20038;-72
2023/07/08 06:22:03;;;;;;;10.65;6.45;;;;;;;19.03;69.84;101461.56;4987181;28;20049;-72
2023/07/08 06:24:28;;;;;;;8.68;5.63;;;;;;;19.10;69.53;101473.72;4987701;28;20046;-72
2023/07/08 06:26:54;;;;;;;12.00;5.93;;;;;;;19.14;70.74;101472.41;4987696;28;20289;-71
2023/07/08 06:29:19;;;;;;;12.02;5.75;;;;;;;19.19;69.20;101474.69;4988634;28;20034;-71
2023/07/08 06:31:44;;;;;;;9.52;5.93;;;;;;;19.29;69.73;101473.63;4987591;28;20034;-71
2023/07/08 06:34:10;;;;;;;10.50;6.32;;;;;;;19.37;68.25;101468.22;4987804;28;20038;-71
2023/07/08 06:36:35;;;;;;;12.10;6.35;;;;;;;19.49;67.74;101470.75;4986878;28;20038;-71
2023/07/08 06:39:00;;;;;;;8.48;6.50;;;;;;;19.58;68.51;101467.97;4987016;28;20057;-71
2023/07/08 06:41:26;;;;;;;13.95;6.13;;;;;;;19.70;68.33;101473.28;4987546;28;20066;-71
2023/07/08 06:43:52;;;;;;;9.77;6.25;;;;;;;19.76;68.13;101470.78;4988323;28;20088;-70
2023/07/08 06:46:20;;;;;;;9.38;6.57;;;;;;;19.83;66.25;101471.03;4988498;28;20042;-70
2023/07/08 06:48:45;;;;;;;13.68;6.90;;;;;;;19.95;66.73;101474.41;5002203;28;20112;-71
2023/07/08 06:51:11;;;;;;;15.52;7.13;;;;;;;20.04;65.84;101471.59;4987164;28;20556;-71
2023/07/08 06:53:36;;;;;;;9.73;6.57;;;;;;;20.14;66.63;101471.50;5001926;28;20046;-72
2023/07/08 06:56:02;;;;;;;12.95;6.55;;;;;;;20.23;67.08;101470.53;4986845;28;20034;-71
2023/07/08 06:58:28;;;;;;;8.65;6.50;;;;;;;20.32;65.95;101466.84;4987921;28;20130;-71
2023/07/08 07:00:53;;;;;;;11.30;6.97;;;;;;;20.39;65.38;101467.94;4987692;28;20470;-71
2023/07/08 07:03:18;;;;;;;9.23;7.35;;;;;;;20.46;63.46;101472.81;4987998;28;20054;-71
2023/07/08 07:05:44;;;;;;;10.07;7.38;;;;;;;20.54;64.36;101467.41;4987251;28;20042;-71
2023/07/08 07:08:09;;;;;;;9.60;7.25;;;;;;;20.62;63.71;101465.56;4987380;28;20039;-72
2023/07/08 07:10:35;;;;;;;17.35;7.28;;;;;;;20.69;64.63;101460.25;4986621;28;20557;-72
2023/07/08 07:13:00;;;;;;;11.43;7.40;;;;;;;20.78;64.52;101458.41;4987172;28;20487;-72
2023/07/08 07:15:25;;;;;;;13.52;7.50;;;;;;;20.86;63.74;101461.22;4996003;28;20036;-71
2023/07/08 07:17:51;;;;;;;10.43;7.43;;;;;;;20.97;63.62;101460.06;5007484;28;20037;-71
2023/07/08 07:20:16;;;;;;;11.05;6.97;;;;;;;21.04;64.43;101461.19;4991187;28;20129;-72
2023/07/08 07:22:42;;;;;;;11.38;7.57;;;;;;;21.12;64.08;101463.97;4987191;28;20054;-72
2023/07/08 07:25:07;;;;;;;11.48;7.13;;;;;;;21.20;64.37;101452.94;4986993;28;20386;-71
2023/07/08 07:27:33;;;;;;;16.95;8.57;;;;;;;21.35;63.78;101454.06;4986931;28;20390;-71
2023/07/08 07:30:01;;;;;;;12.00;7.22;;;;;;;21.46;64.66;101450.16;4987506;28;20026;-71
2023/07/08 07:32:28;;;;;;;14.75;7.00;;;;;;;21.57;62.69;101454.50;4987232;28;20403;-71
2023/07/08 07:34:53;;;;;;;15.43;6.82;;;;;;;21.64;61.82;101459.22;4985748;28;20073;-71
2023/07/08 07:37:21;;;;;;;12.18;6.70;;;;;;;21.73;62.87;101457.34;4986787;28;20252;-70
2023/07/08 07:39:47;;;;;;;13.95;7.50;;;;;;;21.81;60.78;101453.69;4987239;28;20050;-71
2023/07/08 07:42:14;;;;;;;11.25;6.95;;;;;;;21.91;60.82;101458.03;5001796;28;20485;-71
2023/07/08 07:44:39;;;;;;;11.85;7.00;;;;;;;21.98;61.61;101468.47;4988999;28;20521;-70
2023/07/08 07:47:06;;;;;;;11.85;7.13;;;;;;;22.02;60.93;101465.19;4988183;28;20065;-71
2023/07/08 07:49:32;;;;;;;14.13;7.10;;;;;;;22.11;60.29;101455.88;4990585;28;20478;-71
2023/07/08 07:51:58;;;;;;;13.50;6.63;;;;;;;22.23;60.35;101453.63;4990266;28;20034;-71
2023/07/08 07:54:23;;;;;;;11.95;6.93;;;;;;;22.34;60.25;101453.28;4990220;28;20070;-71
2023/07/08 07:56:48;;;;;;;13.90;6.35;;;;;;;22.44;59.50;101461.44;4990274;28;20124;-72
2023/07/08 07:59:14;;;;;;;13.18;6.47;;;;;;;22.53;60.43;101451.22;4990640;28;20120;-71
2023/07/08 08:01:41;;;;;;;10.20;6.32;;;;;;;22.63;59.13;101447.19;4990424;28;20038;-71
2023/07/08 08:04:08;;;;;;;11.43;6.65;;;;;;;22.74;60.99;101445.09;5005424;28;20504;-71
2023/07/08 08:06:34;;;;;;;10.85;5.88;;;;;;;22.87;60.06;101449.06;4990000;28;20073;-71
2023/07/08 08:08:59;;;;;;;13.57;7.20;;;;;;;23.05;58.68;101445.25;4989833;28;20076;-73
2023/07/08 08:11:27;;;;;;;10.90;6.68;;;;;;;23.32;58.81;101455.03;4990214;28;20062;-72
2023/07/08 08:13:53;;;;;;;14.57;6.13;;;;;;;24.06;59.61;101449.94;4990259;28;20038;-71
2023/07/08 08:16:20;;;;;;;9.52;6.60;;;;;;;24.49;54.41;101454.00;4990575;28;20512;-72
2023/07/08 08:18:45;;;;;;;14.80;7.15;;;;;;;24.92;53.26;101449.56;4990059;28;20510;-71
2023/07/08 08:21:10;;;;;;;14.38;7.65;;;;;;;25.42;53.78;101463.81;4990179;28;20133;-71
2023/07/08 08:23:36;;;;;;;14.55;6.97;;;;;;;26.04;51.70;101468.03;5004380;28;20121;-71
2023/07/08 08:26:02;;;;;;;12.57;7.53;;;;;;;26.28;52.51;101467.63;4989723;28;20190;-71
2023/07/08 08:28:27;;;;;;;12.20;7.60;;;;;;;26.92;50.82;101470.38;4989946;28;20026;-71
2023/07/08 08:30:53;;;;;;;12.25;6.78;;;;;;;27.81;50.54;101466.84;4990406;28;20403;-71
2023/07/08 08:33:19;;;;;;;13.07;7.05;;;;;;;28.43;46.15;101467.66;4990339;28;20022;-71
2023/07/08 08:35:44;;;;;;;12.68;6.88;;;;;;;28.98;47.07;101474.78;5004307;28;20057;-71
2023/07/08 08:38:10;;;;;;;16.33;7.50;;;;;;;29.44;44.03;101473.81;4989135;28;20339;-71
2023/07/08 08:40:36;;;;;;;11.63;5.95;;;;;;;29.95;44.10;101477.75;4989225;28;20034;-72
2023/07/08 08:43:31;;;;;;;9.32;5.65;;;;;;;30.43;44.12;101474.44;4989454;28;20038;-71
2023/07/08 08:46:05;;;;;;;10.75;6.35;;;;;;;31.02;42.10;101473.09;5004316;28;20042;-71
2023/07/08 08:48:35;;;;;;;7.53;5.60;;;;;;;31.35;40.78;101481.22;4997830;28;20064;-72
2023/07/08 08:51:13;;;;;;;8.90;5.97;;;;;;;31.58;41.48;101476.84;4990922;28;20034;-72
2023/07/08 08:53:39;;;;;;;9.80;5.93;;;;;;;31.91;39.55;101476.44;4994433;28;20096;-71
2023/07/08 08:56:27;;;;;;;9.60;6.22;;;;;;;31.88;37.48;101482.56;4988959;28;20433;-71
2023/07/08 08:59:06;;;;;;;9.18;6.30;;;;;;;32.07;38.31;101484.22;4989276;28;20042;-71
2023/07/08 09:01:32;;;;;;;8.50;5.78;;;;;;;32.37;37.31;101475.81;4989160;28;20112;-71
2023/07/08 09:04:31;;;;;;;16.48;6.50;;;;;;;32.50;38.95;101481.25;4989263;28;20502;-72
2023/07/08 09:07:05;;;;;;;13.52;6.35;;;;;;;32.62;35.45;101484.06;4987958;28;20077;-71
2023/07/08 09:09:53;;;;;;;11.23;6.60;;;;;;;32.93;38.73;101491.38;4989209;28;20096;-71
2023/07/08 09:12:26;;;;;;;11.50;6.53;;;;;;;33.03;35.99;101492.72;4989534;28;20050;-71
2023/07/08 09:14:51;;;;;;;10.32;6.53;;;;;;;32.98;35.97;101488.69;4989532;28;20475;-70
2023/07/08 09:17:22;;;;;;;11.48;6.90;;;;;;;32.90;34.53;101485.31;4989659;28;20038;-71
2023/07/08 09:20:03;;;;;;;10.77;7.03;;;;;;;32.80;36.36;101491.56;4990299;28;20462;-70
2023/07/08 09:22:43;;;;;;;14.70;6.53;;;;;;;33.23;36.30;101484.75;4988192;28;20765;-71
2023/07/08 09:25:15;;;;;;;15.05;6.78;;;;;;;33.38;35.31;101473.81;4990158;28;20575;-70
2023/07/08 09:27:41;;;;;;;12.65;6.50;;;;;;;33.53;35.44;101472.47;5008161;28;20034;-71
2023/07/08 09:30:15;;;;;;;15.02;6.38;;;;;;;33.61;35.12;101463.63;5001559;28;20501;-71
2023/07/08 09:32:41;;;;;;;11.48;6.75;;;;;;;33.63;33.81;101476.38;4988563;28;20046;-71
2023/07/08 09:35:08;;;;;;;12.23;7.18;;;;;;;33.78;35.06;101477.81;4989313;28;20038;-71
2023/07/08 09:37:36;;;;;;;13.40;6.60;;;;;;;33.68;33.73;101486.94;4988217;28;20038;-71
2023/07/08 09:40:17;;;;;;;9.50;6.35;;;;;;;34.04;34.40;101485.72;4988014;28;20042;-71
2023/07/08 09:42:46;;;;;;;11.75;7.55;;;;;;;33.88;33.04;101481.69;4988467;28;20116;-70
2023/07/08 09:45:18;;;;;;;11.82;7.32;;;;;;;33.50;33.27;101471.88;4988780;28;20045;-70
2023/07/08 09:47:45;;;;;;;12.23;7.45;;;;;;;33.25;33.52;101469.31;4988356;28;20064;-70
2023/07/08 09:50:23;;;;;;;14.75;8.15;;;;;;;33.33;33.85;101465.22;4987990;28;20077;-70
2023/07/08 09:52:51;;;;;;;10.65;6.97;;;;;;;33.59;33.88;101457.38;4988444;28;20065;-71
2023/07/08 09:55:17;;;;;;;10.48;6.70;;;;;;;33.74;33.17;101457.69;4988659;28;20034;-71
2023/07/08 09:57:45;;;;;;;12.10;7.32;;;;;;;34.22;31.89;101450.75;4988109;28;20057;-70
2023/07/08 10:00:15;;;;;;;13.25;6.85;;;;;;;34.09;30.42;101451.06;4989560;28;20038;-70
2023/07/08 10:03:19;;;;;;;10.82;6.90;;;;;;;34.54;32.46;101458.72;5003339;28;20046;-71
2023/07/08 10:05:47;;;;;;;15.20;7.10;;;;;;;34.85;30.63;101451.59;4987670;28;20050;-71
2023/07/08 10:08:21;;;;;;;16.08;6.97;;;;;;;35.12;30.34;101454.63;4987652;28;20042;-70
2023/07/08 10:10:52;;;;;;;10.35;6.60;;;;;;;35.14;30.71;101455.19;4987737;28;20060;-70
2023/07/08 10:13:38;;;;;;;10.77;6.80;;;;;;;35.03;28.64;101459.84;4988580;28;20050;-70
2023/07/08 10:16:27;;;;;;;10.43;7.10;;;;;;;35.16;31.29;101456.66;4988304;28;20038;-70
2023/07/08 10:18:52;;;;;;;11.93;6.97;;;;;;;35.33;30.50;101462.25;4988150;28;20081;-70
2023/07/08 10:21:48;;;;;;;10.43;6.55;;;;;;;35.32;31.66;101460.56;4988019;28;20038;-70
2023/07/08 10:24:47;;;;;;;9.95;6.68;;;;;;;35.15;30.59;101460.59;4987645;28;20080;-71
2023/07/08 10:27:32;;;;;;;10.95;7.60;;;;;;;34.83;30.58;101463.16;4987506;28;20482;-70
2023/07/08 10:30:11;;;;;;;14.13;6.68;;;;;;;34.84;31.35;101456.41;4988208;28;20542;-70
2023/07/08 10:32:55;;;;;;;12.15;6.82;;;;;;;35.11;33.15;101458.53;4987817;28;20042;-70
2023/07/08 10:35:39;;;;;;;10.88;6.68;;;;;;;35.55;31.49;101452.97;4987969;28;20149;-68
2023/07/08 10:38:24;;;;;;;11.38;6.68;;;;;;;35.61;31.41;101449.09;4987406;28;20483;-68
2023/07/08 10:40:58;;;;;;;11.50;6.68;;;;;;;36.01;32.28;101466.59;4996402;28;20077;-68
2023/07/08 10:43:45;;;;;;;11.65;7.75;;;;;;;35.88;29.49;101460.47;5007228;28;20052;-68
2023/07/08 10:46:16;;;;;;;11.90;6.50;;;;;;;36.00;31.16;101459.22;5006590;28;20848;-68
2023/07/08 10:49:20;;;;;;;14.32;7.40;;;;;;;36.14;29.90;101468.16;5005493;28;20069;-67
2023/07/08 10:52:22;;;;;;;11.68;7.05;;;;;;;36.05;30.13;101469.75;5006241;28;20096;-68
2023/07/08 10:54:53;;;;;;;10.93;7.38;;;;;;;36.25;30.91;101464.31;5003719;28;20434;-68
2023/07/08 10:57:46;;;;;;;14.38;7.05;;;;;;;36.46;32.06;101468.22;4987640;28;20042;-67
2023/07/08 11:00:35;;;;;;;11.70;7.43;;;;;;;36.92;31.62;101473.47;4987390;28;20332;-68
2023/07/08 11:03:22;;;;;;;11.45;7.05;;;;;;;37.08;28.62;101478.13;4987491;28;20050;-68
2023/07/08 11:06:00;;;;;;;12.95;7.22;;;;;;;37.01;28.32;101471.81;4988245;28;20034;-68
2023/07/08 11:08:59;;;;;;;11.77;6.70;;;;;;;37.43;28.91;101468.16;4987056;28;20108;-67
2023/07/08 11:11:30;;;;;;;11.05;7.05;;;;;;;37.35;27.11;101471.47;4986420;28;20038;-68
2023/07/08 11:14:08;;;;;;;10.32;7.13;;;;;;;37.65;26.44;101467.97;4987197;28;20560;-68
2023/07/08 11:16:41;;;;;;;12.82;6.53;;;;;;;37.70;26.68;101465.16;4988059;28;20478;-68
2023/07/08 11:19:12;;;;;;;9.00;7.05;;;;;;;37.53;26.13;101462.50;4987138;28;20105;-68
2023/07/08 11:21:47;;;;;;;10.00;6.30;;;;;;;37.71;26.62;101475.38;4988316;28;20041;-68
2023/07/08 11:24:31;;;;;;;11.70;7.03;;;;;;;37.30;25.13;101469.47;4989579;28;20408;-67
2023/07/08 11:27:01;;;;;;;12.45;7.20;;;;;;;37.21;27.87;101465.44;4990358;28;20168;-67
2023/07/08 11:30:11;;;;;;;10.93;7.18;;;;;;;37.44;27.91;101472.69;4990957;28;20057;-67
2023/07/08 11:32:38;;;;;;;13.35;7.50;;;;;;;37.44;23.59;101459.34;4971995;28;20133;-68